createdAt,value
2022-08-03T00:01:37.786Z,5.60
2022-08-03T00:04:07.888Z,6.40
2022-08-03T00:06:37.251Z,5.18
2022-08-03T00:09:07.234Z,5.93
2022-08-03T00:11:34.815Z,6.03
2022-08-03T00:14:02.511Z,6.28
2022-08-03T00:16:29.808Z,7.53
2022-08-03T00:18:56.958Z,7.22
2022-08-03T00:21:24.208Z,6.32
2022-08-03T00:23:52.865Z,7.95
2022-08-03T00:26:23.565Z,7.15
2022-08-03T00:28:51.224Z,7.18
2022-08-03T00:31:38.075Z,6.85
2022-08-03T00:34:06.829Z,7.32
2022-08-03T00:36:34.150Z,6.90
2022-08-03T00:39:01.615Z,7.13
2022-08-03T00:41:28.893Z,7.63
2022-08-03T00:43:56.030Z,7.78
2022-08-03T00:46:23.124Z,7.30
2022-08-03T00:48:51.794Z,6.97
2022-08-03T00:51:21.001Z,7.53
2022-08-03T00:53:48.366Z,7.93
2022-08-03T00:56:16.799Z,7.55
2022-08-03T00:58:47.386Z,7.40
2022-08-03T01:01:15.463Z,7.10
2022-08-03T01:03:43.423Z,7.43
2022-08-03T01:06:22.580Z,7.60
2022-08-03T01:09:00.738Z,7.88
2022-08-03T01:11:30.573Z,7.55
2022-08-03T01:14:19.023Z,8.05
2022-08-03T01:17:00.029Z,7.90
2022-08-03T01:19:52.257Z,7.85
2022-08-03T01:23:15.026Z,7.07
2022-08-03T01:26:10.310Z,8.00
2022-08-03T01:28:56.391Z,8.23
2022-08-03T01:31:29.577Z,7.72
2022-08-03T01:36:44.833Z,7.72
2022-08-03T01:39:12.789Z,7.72
2022-08-03T01:41:59.509Z,7.53
2022-08-03T01:44:31.121Z,6.57
2022-08-03T01:47:01.744Z,8.27
2022-08-03T01:49:32.212Z,7.90
2022-08-03T01:52:04.985Z,7.40
2022-08-03T01:54:37.829Z,7.25
2022-08-03T01:57:06.721Z,7.38
2022-08-03T01:59:36.718Z,7.05
2022-08-03T02:02:27.683Z,6.80
2022-08-03T02:04:56.681Z,7.75
2022-08-03T02:07:26.075Z,7.22
2022-08-03T02:09:55.728Z,7.53
2022-08-03T02:12:25.510Z,7.60
2022-08-03T02:15:15.633Z,8.15
2022-08-03T02:17:44.328Z,7.28
2022-08-03T02:20:13.020Z,7.75
2022-08-03T02:22:41.681Z,7.43
2022-08-03T02:25:10.792Z,7.22
2022-08-03T02:27:43.894Z,8.00
2022-08-03T02:30:13.933Z,7.95
2022-08-03T02:32:46.673Z,7.60
2022-08-03T02:35:18.455Z,7.22
2022-08-03T02:37:52.095Z,7.50
2022-08-03T02:40:21.347Z,7.50
2022-08-03T02:42:52.184Z,7.88
2022-08-03T02:45:21.280Z,7.38
2022-08-03T02:47:54.082Z,7.53
2022-08-03T02:50:24.106Z,7.07
2022-08-03T02:52:53.108Z,7.10
2022-08-03T02:55:22.716Z,7.25
2022-08-03T02:57:51.266Z,7.10
2022-08-03T03:00:19.514Z,7.38
2022-08-03T03:03:00.723Z,7.10
2022-08-03T03:05:55.137Z,6.90
2022-08-03T03:08:26.058Z,7.05
2022-08-03T03:10:58.318Z,6.88
2022-08-03T03:13:27.521Z,7.20
2022-08-03T03:15:57.607Z,6.72
2022-08-03T03:18:27.743Z,6.90
2022-08-03T03:20:56.438Z,6.57
2022-08-03T03:23:25.178Z,6.70
2022-08-03T03:25:53.528Z,6.57
2022-08-03T03:28:20.935Z,6.35
2022-08-03T03:30:52.777Z,6.60
2022-08-03T03:33:21.857Z,7.18
2022-08-03T03:35:49.705Z,6.70
2022-08-03T03:38:16.876Z,6.28
2022-08-03T03:40:44.371Z,6.38
2022-08-03T03:43:12.581Z,6.97
2022-08-03T03:45:44.593Z,6.85
2022-08-03T03:48:12.012Z,7.10
2022-08-03T03:50:41.135Z,7.03
2022-08-03T03:53:13.238Z,7.20
2022-08-03T03:55:58.984Z,7.22
2022-08-03T03:58:28.445Z,7.38
2022-08-03T04:00:55.803Z,7.25
2022-08-03T04:03:23.067Z,7.63
2022-08-03T04:06:09.496Z,7.72
2022-08-03T04:09:06.796Z,7.43
2022-08-03T04:11:55.320Z,7.43
2022-08-03T04:14:29.622Z,7.60
2022-08-03T04:17:03.716Z,8.48
2022-08-03T04:19:47.261Z,7.55
2022-08-03T04:22:20.036Z,7.43
2022-08-03T04:24:52.241Z,6.63
2022-08-03T04:27:25.968Z,6.13
2022-08-03T04:29:55.613Z,5.90
2022-08-03T04:32:26.481Z,6.78
2022-08-03T04:34:54.415Z,6.57
2022-08-03T04:37:41.969Z,6.20
2022-08-03T04:43:11.654Z,5.75
2022-08-03T04:45:39.641Z,5.47
2022-08-03T04:48:07.529Z,7.15
2022-08-03T04:50:35.087Z,7.35
2022-08-03T04:53:02.306Z,6.45
2022-08-03T04:55:30.817Z,6.47
2022-08-03T04:57:58.794Z,6.10
2022-08-03T05:00:26.702Z,6.00
2022-08-03T05:02:54.352Z,6.65
2022-08-03T05:05:22.721Z,6.45
2022-08-03T05:07:50.476Z,6.57
2022-08-03T05:10:18.289Z,6.53
2022-08-03T05:12:48.225Z,5.90
2022-08-03T05:15:16.079Z,6.30
2022-08-03T05:17:43.324Z,6.88
2022-08-03T05:20:11.356Z,7.00
2022-08-03T05:22:38.497Z,6.82
2022-08-03T05:25:05.987Z,7.25
2022-08-03T05:27:33.252Z,6.65
2022-08-03T05:30:31.078Z,7.30
2022-08-03T05:32:48.015Z,7.25
2022-08-03T05:36:00.564Z,6.20
2022-08-03T05:38:03.584Z,6.40
2022-08-03T05:40:31.189Z,6.10
2022-08-03T05:43:03.159Z,5.30
2022-08-03T05:45:30.345Z,5.05
2022-08-03T05:47:57.652Z,5.88
2022-08-03T05:50:24.945Z,5.55
2022-08-03T05:52:56.300Z,5.60
2022-08-03T05:55:23.755Z,5.90
2022-08-03T05:57:50.906Z,5.05
2022-08-03T06:00:22.454Z,5.38
2022-08-03T06:02:52.989Z,6.60
2022-08-03T06:05:20.143Z,5.80
2022-08-03T06:07:47.253Z,6.32
2022-08-03T06:10:36.753Z,5.93
2022-08-03T06:13:02.209Z,6.35
2022-08-03T06:15:29.484Z,6.53
2022-08-03T06:18:01.747Z,7.82
2022-08-03T06:20:29.479Z,6.35
2022-08-03T06:23:00.413Z,7.82
2022-08-03T06:25:29.270Z,7.20
2022-08-03T06:27:57.249Z,6.75
2022-08-03T06:30:24.841Z,7.70
2022-08-03T06:32:52.554Z,7.03
2022-08-03T06:35:20.251Z,8.00
2022-08-03T06:37:51.985Z,7.63
2022-08-03T06:40:29.791Z,7.57
2022-08-03T06:42:58.277Z,6.85
2022-08-03T06:45:26.009Z,6.93
2022-08-03T06:48:07.886Z,6.55
2022-08-03T06:50:36.232Z,6.60
2022-08-03T06:53:04.654Z,6.78
2022-08-03T06:55:32.647Z,6.20
2022-08-03T06:58:00.057Z,5.90
2022-08-03T07:00:31.052Z,6.88
2022-08-03T07:02:58.684Z,6.15
2022-08-03T07:05:25.991Z,5.57
2022-08-03T07:07:57.763Z,6.20
2022-08-03T07:10:25.356Z,6.63
2022-08-03T07:12:56.516Z,6.32
2022-08-03T07:15:38.430Z,5.43
2022-08-03T07:18:12.096Z,6.30
2022-08-03T07:20:39.250Z,5.63
2022-08-03T07:23:06.568Z,5.10
2022-08-03T07:25:33.783Z,5.40
2022-08-03T07:28:00.924Z,4.70
2022-08-03T07:30:28.125Z,5.05
2022-08-03T07:32:55.257Z,5.00
2022-08-03T07:35:25.117Z,4.70
2022-08-03T07:37:54.677Z,4.03
2022-08-03T07:40:22.995Z,4.03
2022-08-03T07:42:53.528Z,4.55
2022-08-03T07:45:24.352Z,3.95
2022-08-03T07:47:53.672Z,3.72
2022-08-03T07:50:21.757Z,3.60
2022-08-03T07:52:49.916Z,3.70
2022-08-03T07:55:19.200Z,3.35
2022-08-03T07:57:46.868Z,3.55
2022-08-03T08:00:17.494Z,3.28
2022-08-03T08:02:45.579Z,3.75
2022-08-03T08:05:12.744Z,3.47
2022-08-03T08:07:40.432Z,3.40
2022-08-03T08:10:09.811Z,3.15
2022-08-03T08:12:40.294Z,2.95
2022-08-03T08:15:08.449Z,2.88
2022-08-03T08:17:50.304Z,3.33
2022-08-03T08:20:23.786Z,3.58
2022-08-03T08:23:17.276Z,3.22
2022-08-03T08:25:54.573Z,3.00
2022-08-03T08:28:32.599Z,3.60
2022-08-03T08:31:01.301Z,3.00
2022-08-03T08:33:42.214Z,3.20
2022-08-03T08:36:15.857Z,3.17
2022-08-03T08:38:45.186Z,2.67
2022-08-03T08:41:17.043Z,3.33
2022-08-03T08:43:44.446Z,3.30
2022-08-03T08:46:23.496Z,3.25
2022-08-03T08:48:52.981Z,3.33
2022-08-03T08:51:22.256Z,3.22
2022-08-03T08:53:53.959Z,3.17
2022-08-03T08:56:25.701Z,3.10
2022-08-03T08:58:58.177Z,3.47
2022-08-03T09:01:25.709Z,2.80
2022-08-03T09:03:54.470Z,3.15
2022-08-03T09:06:24.897Z,2.65
2022-08-03T09:08:54.294Z,2.80
2022-08-03T09:11:54.427Z,2.78
2022-08-03T09:14:33.651Z,2.78
2022-08-03T09:17:03.819Z,2.72
2022-08-03T09:19:32.635Z,3.13
2022-08-03T09:22:11.586Z,3.00
2022-08-03T09:25:21.716Z,2.88
2022-08-03T09:27:44.419Z,2.70
2022-08-03T09:30:18.990Z,2.50
2022-08-03T09:33:02.673Z,3.05
2022-08-03T09:35:53.261Z,2.70
2022-08-03T09:38:20.059Z,3.00
2022-08-03T09:40:47.228Z,2.75
2022-08-03T09:43:15.572Z,3.10
2022-08-03T09:45:44.549Z,2.70
2022-08-03T09:48:26.197Z,3.00
2022-08-03T09:50:58.544Z,3.08
2022-08-03T09:56:01.860Z,2.65
2022-08-03T09:58:50.780Z,3.22
2022-08-03T10:01:24.307Z,2.75
2022-08-03T10:04:03.868Z,2.90
2022-08-03T10:06:31.810Z,2.63
2022-08-03T10:09:16.658Z,2.55
2022-08-03T10:11:48.003Z,2.90
2022-08-03T10:14:21.145Z,2.75
2022-08-03T10:16:48.958Z,2.72
2022-08-03T10:19:17.042Z,2.97
2022-08-03T10:21:54.045Z,2.83
2022-08-03T10:24:26.624Z,2.70
2022-08-03T10:29:28.250Z,3.05
2022-08-03T10:31:59.087Z,3.00
2022-08-03T10:34:29.166Z,2.97
2022-08-03T10:37:00.353Z,3.22
2022-08-03T10:39:30.857Z,2.90
2022-08-03T10:42:02.727Z,3.35
2022-08-03T10:44:41.623Z,3.40
2022-08-03T10:47:10.966Z,3.05
2022-08-03T10:49:39.137Z,2.85
2022-08-03T10:52:13.067Z,3.10
2022-08-03T10:55:14.347Z,3.28
2022-08-03T10:57:46.467Z,2.90
2022-08-03T11:00:24.491Z,3.75
2022-08-03T11:03:18.796Z,2.95
2022-08-03T11:05:49.245Z,3.30
2022-08-03T11:08:35.539Z,3.05
2022-08-03T11:11:17.865Z,3.15
2022-08-03T11:14:00.577Z,3.55
2022-08-03T11:19:03.644Z,2.72
2022-08-03T11:21:52.103Z,3.05
2022-08-03T11:24:44.075Z,2.85
2022-08-03T11:27:27.725Z,3.10
2022-08-03T11:30:11.378Z,3.25
2022-08-03T11:32:38.705Z,3.58
2022-08-03T11:35:14.950Z,3.20
2022-08-03T11:38:07.346Z,3.45
2022-08-03T11:40:42.015Z,3.50
2022-08-03T11:43:32.054Z,2.95
2022-08-03T11:46:29.596Z,4.00
2022-08-03T11:49:10.949Z,3.28
2022-08-03T11:51:40.227Z,2.80
2022-08-03T11:54:07.898Z,3.40
2022-08-03T11:57:04.595Z,3.10
2022-08-03T11:59:36.493Z,2.80
2022-08-03T12:02:13.995Z,3.40
2022-08-03T12:04:53.633Z,3.38
2022-08-03T12:08:02.426Z,3.10
2022-08-03T12:10:11.655Z,2.83
2022-08-03T12:12:44.499Z,2.70
2022-08-03T12:15:13.856Z,2.97
2022-08-03T12:17:42.012Z,3.22
2022-08-03T12:20:20.774Z,3.08
2022-08-03T12:23:06.514Z,3.38
2022-08-03T12:25:39.112Z,3.10
2022-08-03T12:28:36.190Z,3.80
2022-08-03T12:31:13.373Z,3.60
2022-08-03T12:33:58.720Z,3.20
2022-08-03T12:36:27.461Z,3.25
2022-08-03T12:39:02.311Z,3.05
2022-08-03T12:41:32.160Z,3.30
2022-08-03T12:43:59.976Z,3.08
2022-08-03T12:46:32.401Z,2.85
2022-08-03T12:51:37.953Z,3.10
2022-08-03T12:54:07.524Z,3.15
2022-08-03T12:56:35.485Z,3.20
2022-08-03T12:59:32.248Z,3.47
2022-08-03T13:02:09.588Z,3.30
2022-08-03T13:04:37.402Z,3.22
2022-08-03T13:07:06.763Z,3.58
2022-08-03T13:09:45.984Z,3.55
2022-08-03T13:12:18.719Z,3.17
2022-08-03T13:14:48.633Z,3.15
2022-08-03T13:17:19.393Z,3.50
2022-08-03T13:19:48.042Z,3.28
2022-08-03T13:22:20.596Z,4.82
2022-08-03T13:28:01.404Z,3.05
2022-08-03T13:30:04.238Z,3.60
2022-08-03T13:32:31.484Z,3.80
2022-08-03T13:34:58.657Z,3.03
2022-08-03T13:37:26.433Z,3.60
2022-08-03T13:39:58.787Z,3.20
2022-08-03T13:42:28.560Z,3.22
2022-08-03T13:44:55.845Z,3.63
2022-08-03T13:47:23.398Z,3.45
2022-08-03T13:49:59.435Z,3.20
2022-08-03T13:52:33.339Z,3.60
2022-08-03T13:55:01.905Z,3.65
2022-08-03T13:58:04.545Z,3.58
2022-08-03T14:00:27.296Z,2.90
2022-08-03T14:03:16.436Z,3.63
2022-08-03T14:05:44.875Z,3.33
2022-08-03T14:08:12.789Z,3.80
2022-08-03T14:10:42.140Z,2.90
2022-08-03T14:13:11.783Z,3.70
2022-08-03T14:15:39.235Z,3.05
2022-08-03T14:18:12.685Z,3.10
2022-08-03T14:20:49.090Z,3.72
2022-08-03T14:23:19.163Z,2.70
2022-08-03T14:25:51.472Z,3.35
2022-08-03T14:28:23.285Z,3.50
2022-08-03T14:30:58.407Z,3.80
2022-08-03T14:33:26.108Z,3.40
2022-08-03T14:35:53.592Z,3.88
2022-08-03T14:38:21.249Z,3.58
2022-08-03T14:40:48.905Z,3.20
2022-08-03T14:43:34.007Z,3.25
2022-08-03T14:46:02.274Z,3.92
2022-08-03T14:50:31.145Z,3.33
2022-08-03T14:51:16.567Z,3.85
2022-08-03T14:53:43.782Z,3.78
2022-08-03T14:56:11.099Z,4.15
2022-08-03T14:58:38.818Z,3.58
2022-08-03T15:02:04.298Z,4.18
2022-08-03T15:03:55.078Z,3.45
2022-08-03T15:06:22.294Z,4.10
2022-08-03T15:09:06.287Z,3.88
2022-08-03T15:11:37.533Z,4.00
2022-08-03T15:14:08.983Z,3.20
2022-08-03T15:16:37.491Z,3.77
2022-08-03T15:20:02.842Z,3.75
2022-08-03T15:21:52.956Z,3.72
2022-08-03T15:24:20.753Z,3.63
2022-08-03T15:26:47.864Z,3.45
2022-08-03T15:30:07.212Z,3.75
2022-08-03T15:32:04.960Z,3.45
2022-08-03T15:34:34.738Z,3.80
2022-08-03T15:37:01.957Z,7.68
2022-08-03T15:39:29.474Z,4.28
2022-08-03T15:41:56.682Z,3.47
2022-08-03T15:44:23.894Z,4.22
2022-08-03T15:46:53.064Z,3.90
2022-08-03T15:49:20.790Z,4.30
2022-08-03T15:51:48.353Z,3.95
2022-08-03T15:54:15.477Z,3.95
2022-08-03T15:56:45.418Z,4.72
2022-08-03T15:59:14.031Z,4.20
2022-08-03T16:01:42.085Z,12.27
2022-08-03T16:04:09.566Z,4.03
2022-08-03T16:06:48.551Z,4.18
2022-08-03T16:09:24.262Z,5.13
2022-08-03T16:12:03.270Z,3.88
2022-08-03T16:14:34.391Z,4.50
2022-08-03T16:17:05.540Z,4.15
2022-08-03T16:19:32.958Z,4.30
2022-08-03T16:22:00.958Z,4.25
2022-08-03T16:24:28.432Z,4.90
2022-08-03T16:26:56.527Z,3.75
2022-08-03T16:29:24.253Z,4.90
2022-08-03T16:34:38.009Z,4.50
2022-08-03T16:39:53.419Z,4.68
2022-08-03T16:42:20.564Z,4.88
2022-08-03T16:44:47.805Z,4.93
2022-08-03T16:47:21.745Z,4.55
2022-08-03T16:49:53.713Z,5.50
2022-08-03T16:52:24.231Z,4.97
2022-08-03T16:54:53.970Z,5.00
2022-08-03T16:57:55.659Z,5.03
2022-08-03T17:00:12.100Z,4.72
2022-08-03T17:03:00.948Z,5.57
2022-08-03T17:05:43.837Z,5.50
2022-08-03T17:08:15.951Z,4.95
2022-08-03T17:10:45.207Z,5.38
2022-08-03T17:13:21.691Z,5.30
2022-08-03T17:15:57.850Z,5.60
2022-08-03T17:18:34.901Z,5.47
2022-08-03T17:21:08.022Z,5.35
2022-08-03T17:23:58.132Z,6.10
2022-08-03T17:26:28.523Z,5.43
2022-08-03T17:29:12.796Z,5.32
2022-08-03T17:31:48.551Z,5.82
2022-08-03T17:34:17.854Z,5.95
2022-08-03T17:42:30.422Z,6.45
2022-08-03T17:45:01.924Z,7.43
2022-08-03T17:50:24.047Z,5.93
2022-08-03T17:53:15.203Z,6.63
2022-08-03T17:56:04.749Z,5.88
2022-08-03T17:58:59.321Z,5.50
2022-08-03T18:02:06.073Z,5.25
2022-08-03T18:04:42.534Z,5.70
2022-08-03T18:07:12.695Z,5.50
2022-08-03T18:10:03.976Z,6.18
2022-08-03T18:16:02.706Z,6.10
2022-08-03T18:18:43.058Z,6.72
2022-08-03T18:21:16.887Z,6.03
2022-08-03T18:23:51.657Z,6.78
2022-08-03T18:26:19.297Z,7.18
2022-08-03T18:28:48.095Z,6.97
2022-08-03T18:31:33.213Z,7.00
2022-08-03T18:34:18.024Z,7.25
2022-08-03T18:36:56.170Z,6.75
2022-08-03T18:39:23.477Z,7.03
2022-08-03T18:41:51.954Z,6.43
2022-08-03T18:44:53.161Z,6.32
2022-08-03T18:47:52.000Z,6.53
2022-08-03T18:50:36.865Z,6.25
2022-08-03T18:53:20.307Z,6.88
2022-08-03T18:56:19.449Z,6.40
2022-08-03T18:58:47.845Z,5.82
2022-08-03T19:02:00.250Z,5.97
2022-08-03T19:04:53.660Z,5.50
2022-08-03T19:07:27.291Z,6.28
2022-08-03T19:09:59.200Z,5.55
2022-08-03T19:12:39.789Z,5.97
2022-08-03T19:15:12.375Z,5.43
2022-08-03T19:20:38.419Z,5.65
2022-08-03T19:23:06.677Z,5.32
2022-08-03T19:25:39.460Z,5.47
2022-08-03T19:28:20.795Z,4.70
2022-08-03T19:31:02.716Z,4.97
2022-08-03T19:33:56.702Z,5.13
2022-08-03T19:36:26.374Z,5.22
2022-08-03T19:38:58.474Z,4.45
2022-08-03T19:41:42.246Z,4.90
2022-08-03T19:44:19.945Z,4.68
2022-08-03T19:46:54.248Z,4.80
2022-08-03T19:50:05.039Z,4.43
2022-08-03T19:52:16.035Z,4.32
2022-08-03T19:55:00.113Z,3.92
2022-08-03T19:57:29.398Z,4.40
2022-08-03T19:59:57.591Z,4.07
2022-08-03T20:05:20.556Z,4.45
2022-08-03T20:07:48.619Z,4.15
2022-08-03T20:10:17.973Z,4.85
2022-08-03T20:12:46.838Z,4.28
2022-08-03T20:15:18.246Z,4.55
2022-08-03T20:17:55.397Z,5.25
2022-08-03T20:20:29.424Z,4.55
2022-08-03T20:22:58.424Z,5.50
2022-08-03T20:25:38.395Z,5.47
2022-08-03T20:28:27.352Z,5.53
2022-08-03T20:30:55.438Z,5.95
2022-08-03T20:33:27.714Z,5.80
2022-08-03T20:36:11.279Z,5.78
2022-08-03T20:38:43.514Z,5.35
2022-08-03T20:41:14.894Z,5.88
2022-08-03T20:43:42.422Z,6.43
2022-08-03T20:46:29.083Z,6.55
2022-08-03T20:48:58.873Z,5.22
2022-08-03T20:51:52.745Z,5.78
2022-08-03T20:54:29.928Z,5.50
2022-08-03T20:57:03.558Z,6.03
2022-08-03T20:59:46.903Z,6.00
2022-08-03T21:02:19.594Z,6.68
2022-08-03T21:04:56.539Z,6.20
2022-08-03T21:07:25.029Z,6.15
2022-08-03T21:10:15.415Z,5.80
2022-08-03T21:13:01.992Z,5.43
2022-08-03T21:13:09.560Z,4.07
2022-08-03T21:13:18.907Z,6.15
2022-08-03T21:16:11.594Z,6.50
2022-08-03T21:19:00.107Z,6.17
2022-08-03T21:21:31.733Z,6.85
2022-08-03T21:24:00.366Z,6.10
2022-08-03T21:26:31.984Z,6.63
2022-08-03T21:29:00.833Z,6.72
2022-08-03T21:31:28.082Z,6.20
2022-08-03T21:33:59.705Z,6.40
2022-08-03T21:36:29.155Z,6.20
2022-08-03T21:38:57.743Z,6.60
2022-08-03T21:41:30.734Z,6.07
2022-08-03T21:43:59.771Z,6.68
2022-08-03T21:46:29.682Z,6.50
2022-08-03T21:50:07.750Z,6.85
2022-08-03T21:51:50.567Z,6.82
2022-08-03T21:54:21.272Z,6.35
2022-08-03T21:56:51.188Z,6.85
2022-08-03T21:59:20.475Z,6.60
2022-08-03T22:01:55.484Z,6.10
2022-08-03T22:04:53.377Z,6.80
2022-08-03T22:07:15.839Z,7.38
2022-08-03T22:09:50.985Z,6.95
2022-08-03T22:12:24.017Z,7.32
2022-08-03T22:15:01.458Z,7.57
2022-08-03T22:17:55.709Z,7.38
2022-08-03T22:20:22.494Z,7.43
2022-08-03T22:22:58.018Z,6.93
2022-08-03T22:25:29.579Z,6.75
2022-08-03T22:27:59.355Z,6.78
2022-08-03T22:30:27.219Z,7.47
2022-08-03T22:32:56.421Z,7.32
2022-08-03T22:35:27.815Z,7.25
2022-08-03T22:37:57.516Z,6.00
2022-08-03T22:40:25.069Z,6.35
2022-08-03T22:42:52.985Z,6.03
2022-08-03T22:46:07.468Z,6.53
2022-08-03T22:48:08.433Z,6.50
2022-08-03T22:50:36.229Z,6.55
2022-08-03T22:53:03.469Z,6.07
2022-08-03T22:55:31.368Z,6.28
2022-08-03T22:57:58.638Z,6.20
2022-08-03T23:00:25.970Z,6.30
2022-08-03T23:02:55.491Z,6.82
2022-08-03T23:06:01.531Z,6.53
2022-08-03T23:08:25.245Z,6.78
2022-08-03T23:10:54.075Z,7.60
2022-08-03T23:13:25.380Z,6.60
2022-08-03T23:15:56.896Z,6.28
2022-08-03T23:18:25.544Z,7.22
2022-08-03T23:20:53.486Z,6.68
2022-08-03T23:23:21.091Z,6.50
2022-08-03T23:25:51.453Z,7.75
2022-08-03T23:28:19.149Z,7.05
2022-08-03T23:30:52.997Z,7.25
2022-08-03T23:33:21.835Z,7.07
2022-08-03T23:36:28.211Z,8.75
2022-08-03T23:38:47.794Z,16.40
2022-08-03T23:41:17.747Z,7.85
2022-08-03T23:43:53.922Z,6.90
2022-08-03T23:46:25.983Z,7.50
2022-08-03T23:48:56.508Z,7.65
2022-08-03T23:51:46.220Z,7.53
2022-08-03T23:54:40.890Z,6.72
2022-08-03T23:57:42.236Z,7.70
